Flight Briefing for CPX791

Departure Arrival
Changi International Airport (WSSS)
Click to view FAA NOTAMS
Kingsford Smith International Airport (YSSY)
Click to view FAA NOTAMS
Departure Time Arrival Time
N/A N/A
Aircraft Distance
B747-400BCF 3402nm
Departure METAR Arrival METAR
WSSS 181600Z 02003KT 330V050 9000 FEW020 BKN300 27/22 Q1013 NOSIG YSSY 181600Z 28006KT 9999 VCSH FEW012 SCT060 BKN230 19/18 Q1011
Suggested Route
ANIT7B ANITO/M082F310 B470 PKP/N0496F310 L511 RUPKA/N0492F330 L511 TARUN T20 BRM/N0488F350 G222 AGAGO/N0483F370 G222 PKS H319 TARAL Y59 RIVET


View recent IFR Routes data
Notes



Charts and Procedures

Charts for WSSS
No chart available
Charts for YSSY
No chart available

Windy.com Weather Map